sensor_id;sensor_type;location;lat;lon;timestamp;temperature;humidity
28336;DHT22;15592;53.656;7.276;2023-06-24T00:00:05;15.10;99.90
28336;DHT22;15592;53.656;7.276;2023-06-24T00:02:33;15.10;99.90
28336;DHT22;15592;53.656;7.276;2023-06-24T00:05:02;15.10;99.90
28336;DHT22;15592;53.656;7.276;2023-06-24T00:07:29;15.20;99.90
28336;DHT22;15592;53.656;7.276;2023-06-24T00:09:54;15.10;99.90
28336;DHT22;15592;53.656;7.276;2023-06-24T00:12:20;15.10;99.90
28336;DHT22;15592;53.656;7.276;2023-06-24T00:14:50;15.10;99.90
28336;DHT22;15592;53.656;7.276;2023-06-24T00:17:15;15.00;99.90
28336;DHT22;15592;53.656;7.276;2023-06-24T00:19:42;15.00;99.90
28336;DHT22;15592;53.656;7.276;2023-06-24T00:22:09;14.90;99.90
28336;DHT22;15592;53.656;7.276;2023-06-24T00:24:35;14.90;99.90
28336;DHT22;15592;53.656;7.276;2023-06-24T00:27:00;14.90;99.90
28336;DHT22;15592;53.656;7.276;2023-06-24T00:29:26;14.90;99.90
28336;DHT22;15592;53.656;7.276;2023-06-24T00:31:52;14.90;99.90
28336;DHT22;15592;53.656;7.276;2023-06-24T00:34:17;14.90;99.90
28336;DHT22;15592;53.656;7.276;2023-06-24T00:36:45;14.90;99.90
28336;DHT22;15592;53.656;7.276;2023-06-24T00:39:12;14.90;99.90
28336;DHT22;15592;53.656;7.276;2023-06-24T00:41:38;14.90;99.90
28336;DHT22;15592;53.656;7.276;2023-06-24T00:44:03;14.90;99.90
28336;DHT22;15592;53.656;7.276;2023-06-24T00:46:29;14.90;99.90
28336;DHT22;15592;53.656;7.276;2023-06-24T00:48:58;14.80;99.90
28336;DHT22;15592;53.656;7.276;2023-06-24T00:51:24;14.80;99.90
28336;DHT22;15592;53.656;7.276;2023-06-24T00:53:52;14.70;99.90
28336;DHT22;15592;53.656;7.276;2023-06-24T00:56:21;14.70;99.90
28336;DHT22;15592;53.656;7.276;2023-06-24T00:58:47;14.70;99.90
28336;DHT22;15592;53.656;7.276;2023-06-24T01:01:14;14.60;99.90
28336;DHT22;15592;53.656;7.276;2023-06-24T01:03:40;14.70;99.90
28336;DHT22;15592;53.656;7.276;2023-06-24T01:06:07;14.60;99.90
28336;DHT22;15592;53.656;7.276;2023-06-24T01:08:34;14.60;99.90
28336;DHT22;15592;53.656;7.276;2023-06-24T01:10:59;14.60;99.90
28336;DHT22;15592;53.656;7.276;2023-06-24T01:13:25;14.60;99.90
28336;DHT22;15592;53.656;7.276;2023-06-24T01:15:51;14.60;99.90
28336;DHT22;15592;53.656;7.276;2023-06-24T01:18:29;14.60;99.90
28336;DHT22;15592;53.656;7.276;2023-06-24T01:21:10;14.60;99.90
28336;DHT22;15592;53.656;7.276;2023-06-24T01:26:22;14.50;99.90
28336;DHT22;15592;53.656;7.276;2023-06-24T01:34:25;14.30;99.90
28336;DHT22;15592;53.656;7.276;2023-06-24T01:39:42;14.20;99.90
28336;DHT22;15592;53.656;7.276;2023-06-24T01:42:12;14.10;99.90
28336;DHT22;15592;53.656;7.276;2023-06-24T01:44:42;14.10;99.90
28336;DHT22;15592;53.656;7.276;2023-06-24T01:47:09;14.10;99.90
28336;DHT22;15592;53.656;7.276;2023-06-24T01:49:39;14.10;99.90
28336;DHT22;15592;53.656;7.276;2023-06-24T01:52:08;14.10;99.90
28336;DHT22;15592;53.656;7.276;2023-06-24T01:54:36;14.10;99.90
28336;DHT22;15592;53.656;7.276;2023-06-24T01:57:03;14.10;99.90
28336;DHT22;15592;53.656;7.276;2023-06-24T01:59:31;14.10;99.90
28336;DHT22;15592;53.656;7.276;2023-06-24T02:01:58;14.10;99.90
28336;DHT22;15592;53.656;7.276;2023-06-24T02:04:25;14.10;99.90
28336;DHT22;15592;53.656;7.276;2023-06-24T02:06:58;14.10;99.90
28336;DHT22;15592;53.656;7.276;2023-06-24T02:09:26;14.10;99.90
28336;DHT22;15592;53.656;7.276;2023-06-24T02:11:54;14.10;99.90
28336;DHT22;15592;53.656;7.276;2023-06-24T02:14:21;14.10;99.90
28336;DHT22;15592;53.656;7.276;2023-06-24T02:16:49;14.10;99.90
28336;DHT22;15592;53.656;7.276;2023-06-24T02:19:16;14.10;99.90
28336;DHT22;15592;53.656;7.276;2023-06-24T02:21:44;14.10;99.90
28336;DHT22;15592;53.656;7.276;2023-06-24T02:24:11;14.10;99.90
28336;DHT22;15592;53.656;7.276;2023-06-24T02:26:37;14.10;99.90
28336;DHT22;15592;53.656;7.276;2023-06-24T02:29:08;14.10;99.90
28336;DHT22;15592;53.656;7.276;2023-06-24T02:31:35;14.20;99.90
28336;DHT22;15592;53.656;7.276;2023-06-24T02:34:00;14.20;99.90
28336;DHT22;15592;53.656;7.276;2023-06-24T02:36:26;14.20;99.90
28336;DHT22;15592;53.656;7.276;2023-06-24T02:38:52;14.20;99.90
28336;DHT22;15592;53.656;7.276;2023-06-24T02:41:17;14.20;99.90
28336;DHT22;15592;53.656;7.276;2023-06-24T02:43:43;14.20;99.90
28336;DHT22;15592;53.656;7.276;2023-06-24T02:46:09;14.10;99.90
28336;DHT22;15592;53.656;7.276;2023-06-24T02:48:36;14.10;99.90
28336;DHT22;15592;53.656;7.276;2023-06-24T02:51:05;14.10;99.90
28336;DHT22;15592;53.656;7.276;2023-06-24T02:53:32;14.10;99.90
28336;DHT22;15592;53.656;7.276;2023-06-24T02:55:58;14.10;99.90
28336;DHT22;15592;53.656;7.276;2023-06-24T02:58:24;14.00;99.90
28336;DHT22;15592;53.656;7.276;2023-06-24T03:01:01;14.00;99.90
28336;DHT22;15592;53.656;7.276;2023-06-24T03:03:29;14.00;99.90
28336;DHT22;15592;53.656;7.276;2023-06-24T03:05:55;13.90;99.90
28336;DHT22;15592;53.656;7.276;2023-06-24T03:08:24;13.90;99.90
28336;DHT22;15592;53.656;7.276;2023-06-24T03:10:54;13.90;99.90
28336;DHT22;15592;53.656;7.276;2023-06-24T03:13:20;13.90;99.90
28336;DHT22;15592;53.656;7.276;2023-06-24T03:15:45;13.80;99.90
28336;DHT22;15592;53.656;7.276;2023-06-24T03:18:11;13.80;99.90
28336;DHT22;15592;53.656;7.276;2023-06-24T03:20:37;13.80;99.90
28336;DHT22;15592;53.656;7.276;2023-06-24T03:23:05;13.80;99.90
28336;DHT22;15592;53.656;7.276;2023-06-24T03:25:32;13.80;99.90
28336;DHT22;15592;53.656;7.276;2023-06-24T03:27:57;13.80;99.90
28336;DHT22;15592;53.656;7.276;2023-06-24T03:30:23;13.80;99.90
28336;DHT22;15592;53.656;7.276;2023-06-24T03:32:49;13.90;99.90
28336;DHT22;15592;53.656;7.276;2023-06-24T03:35:15;13.90;99.90
28336;DHT22;15592;53.656;7.276;2023-06-24T03:37:40;14.00;99.90
28336;DHT22;15592;53.656;7.276;2023-06-24T03:40:06;14.00;99.90
28336;DHT22;15592;53.656;7.276;2023-06-24T03:42:33;14.10;99.90
28336;DHT22;15592;53.656;7.276;2023-06-24T03:44:58;14.10;99.90
28336;DHT22;15592;53.656;7.276;2023-06-24T03:47:24;14.10;99.90
28336;DHT22;15592;53.656;7.276;2023-06-24T03:49:50;14.20;99.90
28336;DHT22;15592;53.656;7.276;2023-06-24T03:52:17;14.20;99.90
28336;DHT22;15592;53.656;7.276;2023-06-24T03:54:42;14.20;99.90
28336;DHT22;15592;53.656;7.276;2023-06-24T03:57:08;14.20;99.90
28336;DHT22;15592;53.656;7.276;2023-06-24T03:59:34;14.20;99.90
28336;DHT22;15592;53.656;7.276;2023-06-24T04:01:59;14.20;99.90
28336;DHT22;15592;53.656;7.276;2023-06-24T04:04:26;14.30;99.90
28336;DHT22;15592;53.656;7.276;2023-06-24T04:06:51;14.30;99.90
28336;DHT22;15592;53.656;7.276;2023-06-24T04:09:17;14.30;99.90
28336;DHT22;15592;53.656;7.276;2023-06-24T04:11:43;14.30;99.90
28336;DHT22;15592;53.656;7.276;2023-06-24T04:14:08;14.30;99.90
28336;DHT22;15592;53.656;7.276;2023-06-24T04:16:35;14.30;99.90
28336;DHT22;15592;53.656;7.276;2023-06-24T04:19:01;14.30;99.90
28336;DHT22;15592;53.656;7.276;2023-06-24T04:21:27;14.30;99.90
28336;DHT22;15592;53.656;7.276;2023-06-24T04:23:53;14.40;99.90
28336;DHT22;15592;53.656;7.276;2023-06-24T04:26:18;14.40;99.90
28336;DHT22;15592;53.656;7.276;2023-06-24T04:28:44;14.40;99.90
28336;DHT22;15592;53.656;7.276;2023-06-24T04:31:10;14.40;99.90
28336;DHT22;15592;53.656;7.276;2023-06-24T04:33:35;14.40;99.90
28336;DHT22;15592;53.656;7.276;2023-06-24T04:36:01;14.50;99.90
28336;DHT22;15592;53.656;7.276;2023-06-24T04:38:26;14.50;99.90
28336;DHT22;15592;53.656;7.276;2023-06-24T04:40:52;14.50;99.90
28336;DHT22;15592;53.656;7.276;2023-06-24T04:43:18;14.60;99.90
28336;DHT22;15592;53.656;7.276;2023-06-24T04:45:44;14.60;99.90
28336;DHT22;15592;53.656;7.276;2023-06-24T04:48:09;14.70;99.90
28336;DHT22;15592;53.656;7.276;2023-06-24T04:50:35;14.70;99.90
28336;DHT22;15592;53.656;7.276;2023-06-24T04:53:00;14.80;99.90
28336;DHT22;15592;53.656;7.276;2023-06-24T04:55:27;14.80;99.90
28336;DHT22;15592;53.656;7.276;2023-06-24T04:57:55;14.80;99.90
28336;DHT22;15592;53.656;7.276;2023-06-24T05:00:21;14.90;99.90
28336;DHT22;15592;53.656;7.276;2023-06-24T05:02:48;14.90;99.90
28336;DHT22;15592;53.656;7.276;2023-06-24T05:05:14;15.00;99.90
28336;DHT22;15592;53.656;7.276;2023-06-24T05:07:39;15.00;99.90
28336;DHT22;15592;53.656;7.276;2023-06-24T05:10:05;15.00;99.90
28336;DHT22;15592;53.656;7.276;2023-06-24T05:12:31;15.10;99.90
28336;DHT22;15592;53.656;7.276;2023-06-24T05:14:57;15.20;99.90
28336;DHT22;15592;53.656;7.276;2023-06-24T05:17:23;15.20;99.90
28336;DHT22;15592;53.656;7.276;2023-06-24T05:19:49;15.30;99.90
28336;DHT22;15592;53.656;7.276;2023-06-24T05:22:14;15.40;99.90
28336;DHT22;15592;53.656;7.276;2023-06-24T05:24:40;15.40;99.90
28336;DHT22;15592;53.656;7.276;2023-06-24T05:27:06;15.50;99.90
28336;DHT22;15592;53.656;7.276;2023-06-24T05:29:33;15.60;99.90
28336;DHT22;15592;53.656;7.276;2023-06-24T05:31:59;15.60;99.90
28336;DHT22;15592;53.656;7.276;2023-06-24T05:34:25;15.70;99.90
28336;DHT22;15592;53.656;7.276;2023-06-24T05:36:51;15.80;99.90
28336;DHT22;15592;53.656;7.276;2023-06-24T05:39:17;15.90;99.90
28336;DHT22;15592;53.656;7.276;2023-06-24T05:41:42;15.90;99.90
28336;DHT22;15592;53.656;7.276;2023-06-24T05:44:08;16.00;99.90
28336;DHT22;15592;53.656;7.276;2023-06-24T05:46:35;16.00;99.90
28336;DHT22;15592;53.656;7.276;2023-06-24T05:49:01;16.10;99.90
28336;DHT22;15592;53.656;7.276;2023-06-24T05:51:27;16.10;99.90
28336;DHT22;15592;53.656;7.276;2023-06-24T05:53:53;16.10;99.90
28336;DHT22;15592;53.656;7.276;2023-06-24T05:56:20;16.10;99.90
28336;DHT22;15592;53.656;7.276;2023-06-24T05:58:45;16.10;99.90
28336;DHT22;15592;53.656;7.276;2023-06-24T06:01:11;16.20;99.90
28336;DHT22;15592;53.656;7.276;2023-06-24T06:03:36;16.20;99.90
28336;DHT22;15592;53.656;7.276;2023-06-24T06:06:02;16.30;99.90
28336;DHT22;15592;53.656;7.276;2023-06-24T06:08:28;16.30;99.90
28336;DHT22;15592;53.656;7.276;2023-06-24T06:10:53;16.40;99.90
28336;DHT22;15592;53.656;7.276;2023-06-24T06:13:19;16.40;99.90
28336;DHT22;15592;53.656;7.276;2023-06-24T06:15:45;16.50;99.90
28336;DHT22;15592;53.656;7.276;2023-06-24T06:18:11;16.60;99.90
28336;DHT22;15592;53.656;7.276;2023-06-24T06:20:37;16.70;99.90
28336;DHT22;15592;53.656;7.276;2023-06-24T06:23:02;16.80;99.90
28336;DHT22;15592;53.656;7.276;2023-06-24T06:25:28;16.90;99.90
28336;DHT22;15592;53.656;7.276;2023-06-24T06:27:54;16.90;99.90
28336;DHT22;15592;53.656;7.276;2023-06-24T06:30:19;16.90;99.90
28336;DHT22;15592;53.656;7.276;2023-06-24T06:32:45;17.00;99.90
28336;DHT22;15592;53.656;7.276;2023-06-24T06:35:11;17.00;99.90
28336;DHT22;15592;53.656;7.276;2023-06-24T06:37:36;17.00;99.90
28336;DHT22;15592;53.656;7.276;2023-06-24T06:40:02;17.20;99.90
28336;DHT22;15592;53.656;7.276;2023-06-24T06:42:29;17.20;99.90
28336;DHT22;15592;53.656;7.276;2023-06-24T06:44:54;17.40;99.90
28336;DHT22;15592;53.656;7.276;2023-06-24T06:47:20;17.40;99.90
28336;DHT22;15592;53.656;7.276;2023-06-24T06:49:46;17.50;99.90
28336;DHT22;15592;53.656;7.276;2023-06-24T06:52:12;17.50;99.90
28336;DHT22;15592;53.656;7.276;2023-06-24T06:54:37;17.50;99.90
28336;DHT22;15592;53.656;7.276;2023-06-24T06:57:04;17.50;99.90
28336;DHT22;15592;53.656;7.276;2023-06-24T06:59:32;17.60;99.90
28336;DHT22;15592;53.656;7.276;2023-06-24T07:01:58;17.60;99.90
28336;DHT22;15592;53.656;7.276;2023-06-24T07:04:24;17.60;99.90
28336;DHT22;15592;53.656;7.276;2023-06-24T07:06:50;17.60;99.90
28336;DHT22;15592;53.656;7.276;2023-06-24T07:09:15;17.60;99.90
28336;DHT22;15592;53.656;7.276;2023-06-24T07:11:42;17.60;99.90
28336;DHT22;15592;53.656;7.276;2023-06-24T07:16:43;17.60;99.90
28336;DHT22;15592;53.656;7.276;2023-06-24T07:19:09;17.70;99.90
28336;DHT22;15592;53.656;7.276;2023-06-24T07:21:34;17.80;99.90
28336;DHT22;15592;53.656;7.276;2023-06-24T07:24:00;17.90;99.90
28336;DHT22;15592;53.656;7.276;2023-06-24T07:26:26;18.00;99.90
28336;DHT22;15592;53.656;7.276;2023-06-24T07:28:55;18.10;99.90
28336;DHT22;15592;53.656;7.276;2023-06-24T07:31:21;18.20;99.90
28336;DHT22;15592;53.656;7.276;2023-06-24T07:33:47;18.30;99.90
28336;DHT22;15592;53.656;7.276;2023-06-24T07:36:12;18.30;99.90
28336;DHT22;15592;53.656;7.276;2023-06-24T07:38:39;18.40;99.90
28336;DHT22;15592;53.656;7.276;2023-06-24T07:41:04;18.50;99.90
28336;DHT22;15592;53.656;7.276;2023-06-24T07:43:30;18.60;99.90
28336;DHT22;15592;53.656;7.276;2023-06-24T07:45:55;18.60;99.90
28336;DHT22;15592;53.656;7.276;2023-06-24T07:48:21;18.70;99.90
28336;DHT22;15592;53.656;7.276;2023-06-24T07:50:47;18.90;99.90
28336;DHT22;15592;53.656;7.276;2023-06-24T07:53:12;18.90;99.90
28336;DHT22;15592;53.656;7.276;2023-06-24T07:55:38;19.00;99.90
28336;DHT22;15592;53.656;7.276;2023-06-24T07:58:04;19.10;99.90
28336;DHT22;15592;53.656;7.276;2023-06-24T08:00:30;19.20;99.90
28336;DHT22;15592;53.656;7.276;2023-06-24T08:02:57;19.30;99.90
28336;DHT22;15592;53.656;7.276;2023-06-24T08:05:23;19.30;99.90
28336;DHT22;15592;53.656;7.276;2023-06-24T08:07:50;19.40;99.90
28336;DHT22;15592;53.656;7.276;2023-06-24T08:10:16;19.50;99.90
28336;DHT22;15592;53.656;7.276;2023-06-24T08:12:42;19.60;99.90
28336;DHT22;15592;53.656;7.276;2023-06-24T08:15:08;19.70;99.90
28336;DHT22;15592;53.656;7.276;2023-06-24T08:17:34;19.80;99.90
28336;DHT22;15592;53.656;7.276;2023-06-24T08:20:00;20.00;99.90
28336;DHT22;15592;53.656;7.276;2023-06-24T08:22:25;20.10;99.90
28336;DHT22;15592;53.656;7.276;2023-06-24T08:24:51;20.30;99.90
28336;DHT22;15592;53.656;7.276;2023-06-24T08:27:16;20.50;99.90
28336;DHT22;15592;53.656;7.276;2023-06-24T08:29:42;20.80;99.90
28336;DHT22;15592;53.656;7.276;2023-06-24T08:32:07;21.00;99.90
28336;DHT22;15592;53.656;7.276;2023-06-24T08:34:33;21.20;99.90
28336;DHT22;15592;53.656;7.276;2023-06-24T08:36:59;21.30;99.90
28336;DHT22;15592;53.656;7.276;2023-06-24T08:39:25;21.40;99.90
28336;DHT22;15592;53.656;7.276;2023-06-24T08:41:51;21.50;99.90
28336;DHT22;15592;53.656;7.276;2023-06-24T08:44:17;21.50;99.90
28336;DHT22;15592;53.656;7.276;2023-06-24T08:46:43;21.60;99.90
28336;DHT22;15592;53.656;7.276;2023-06-24T08:51:46;21.70;99.90
28336;DHT22;15592;53.656;7.276;2023-06-24T08:54:14;21.70;99.90
28336;DHT22;15592;53.656;7.276;2023-06-24T08:56:41;21.70;99.90
28336;DHT22;15592;53.656;7.276;2023-06-24T08:59:08;21.80;99.90
28336;DHT22;15592;53.656;7.276;2023-06-24T09:01:34;21.90;99.90
28336;DHT22;15592;53.656;7.276;2023-06-24T09:03:59;21.90;99.90
28336;DHT22;15592;53.656;7.276;2023-06-24T09:06:25;22.00;99.90
28336;DHT22;15592;53.656;7.276;2023-06-24T09:08:55;22.00;99.90
28336;DHT22;15592;53.656;7.276;2023-06-24T09:11:25;22.00;99.90
28336;DHT22;15592;53.656;7.276;2023-06-24T09:13:59;22.00;99.90
28336;DHT22;15592;53.656;7.276;2023-06-24T09:16:25;22.00;99.90
28336;DHT22;15592;53.656;7.276;2023-06-24T09:18:52;22.00;99.90
28336;DHT22;15592;53.656;7.276;2023-06-24T09:21:22;22.00;99.90
28336;DHT22;15592;53.656;7.276;2023-06-24T09:23:54;22.10;99.90
28336;DHT22;15592;53.656;7.276;2023-06-24T09:26:22;22.10;99.90
28336;DHT22;15592;53.656;7.276;2023-06-24T09:28:48;22.10;99.90
28336;DHT22;15592;53.656;7.276;2023-06-24T09:31:17;22.20;99.90
28336;DHT22;15592;53.656;7.276;2023-06-24T09:33:44;22.20;99.90
28336;DHT22;15592;53.656;7.276;2023-06-24T09:36:14;22.30;99.90
28336;DHT22;15592;53.656;7.276;2023-06-24T09:38:44;22.30;99.90
28336;DHT22;15592;53.656;7.276;2023-06-24T09:41:10;22.40;99.90
28336;DHT22;15592;53.656;7.276;2023-06-24T09:43:37;22.40;99.90
28336;DHT22;15592;53.656;7.276;2023-06-24T09:46:05;22.50;99.90
28336;DHT22;15592;53.656;7.276;2023-06-24T09:48:32;22.50;99.90
28336;DHT22;15592;53.656;7.276;2023-06-24T09:51:03;22.70;99.90
28336;DHT22;15592;53.656;7.276;2023-06-24T09:53:34;22.80;99.90
28336;DHT22;15592;53.656;7.276;2023-06-24T09:56:01;22.90;99.90
28336;DHT22;15592;53.656;7.276;2023-06-24T09:58:33;23.00;99.90
28336;DHT22;15592;53.656;7.276;2023-06-24T10:01:05;23.00;99.90
28336;DHT22;15592;53.656;7.276;2023-06-24T10:03:33;23.00;99.90
28336;DHT22;15592;53.656;7.276;2023-06-24T10:06:00;23.10;99.90
28336;DHT22;15592;53.656;7.276;2023-06-24T10:08:28;23.10;99.90
28336;DHT22;15592;53.656;7.276;2023-06-24T10:10:54;23.10;99.90
28336;DHT22;15592;53.656;7.276;2023-06-24T10:13:19;23.20;99.90
28336;DHT22;15592;53.656;7.276;2023-06-24T10:15:46;23.10;99.90
28336;DHT22;15592;53.656;7.276;2023-06-24T10:20:56;23.30;99.90
28336;DHT22;15592;53.656;7.276;2023-06-24T10:23:22;23.40;99.90
28336;DHT22;15592;53.656;7.276;2023-06-24T10:25:48;23.50;99.90
28336;DHT22;15592;53.656;7.276;2023-06-24T10:28:13;23.60;99.90
28336;DHT22;15592;53.656;7.276;2023-06-24T10:30:39;23.60;99.90
28336;DHT22;15592;53.656;7.276;2023-06-24T10:33:10;23.70;99.90
28336;DHT22;15592;53.656;7.276;2023-06-24T10:35:41;23.70;99.90
28336;DHT22;15592;53.656;7.276;2023-06-24T10:38:10;23.70;99.90
28336;DHT22;15592;53.656;7.276;2023-06-24T10:40:41;23.60;99.90
28336;DHT22;15592;53.656;7.276;2023-06-24T10:43:26;23.70;99.90
28336;DHT22;15592;53.656;7.276;2023-06-24T10:45:58;23.70;99.90
28336;DHT22;15592;53.656;7.276;2023-06-24T10:48:26;23.70;99.90
28336;DHT22;15592;53.656;7.276;2023-06-24T10:50:52;23.70;99.90
28336;DHT22;15592;53.656;7.276;2023-06-24T10:53:18;23.70;99.90
28336;DHT22;15592;53.656;7.276;2023-06-24T10:55:46;23.80;99.90
28336;DHT22;15592;53.656;7.276;2023-06-24T10:58:13;23.80;99.90
28336;DHT22;15592;53.656;7.276;2023-06-24T11:00:41;23.80;99.90
28336;DHT22;15592;53.656;7.276;2023-06-24T11:03:10;23.70;99.90
28336;DHT22;15592;53.656;7.276;2023-06-24T11:05:41;23.70;99.90
28336;DHT22;15592;53.656;7.276;2023-06-24T11:08:08;23.80;99.90
28336;DHT22;15592;53.656;7.276;2023-06-24T11:10:42;23.90;99.90
28336;DHT22;15592;53.656;7.276;2023-06-24T11:13:08;24.00;99.90
28336;DHT22;15592;53.656;7.276;2023-06-24T11:15:34;24.00;99.90
28336;DHT22;15592;53.656;7.276;2023-06-24T11:18:02;24.10;99.90
28336;DHT22;15592;53.656;7.276;2023-06-24T11:20:29;24.10;99.90
28336;DHT22;15592;53.656;7.276;2023-06-24T11:22:55;24.10;99.90
28336;DHT22;15592;53.656;7.276;2023-06-24T11:25:21;24.10;99.90
28336;DHT22;15592;53.656;7.276;2023-06-24T11:27:49;24.20;99.90
28336;DHT22;15592;53.656;7.276;2023-06-24T11:30:16;24.20;99.90
28336;DHT22;15592;53.656;7.276;2023-06-24T11:32:43;24.30;99.90
28336;DHT22;15592;53.656;7.276;2023-06-24T11:35:10;24.30;99.90
28336;DHT22;15592;53.656;7.276;2023-06-24T11:37:36;24.20;99.90
28336;DHT22;15592;53.656;7.276;2023-06-24T11:40:06;24.10;99.90
28336;DHT22;15592;53.656;7.276;2023-06-24T11:42:35;24.10;99.90
28336;DHT22;15592;53.656;7.276;2023-06-24T11:45:14;24.20;99.90
28336;DHT22;15592;53.656;7.276;2023-06-24T11:47:44;24.20;99.90
28336;DHT22;15592;53.656;7.276;2023-06-24T11:50:10;24.20;99.90
28336;DHT22;15592;53.656;7.276;2023-06-24T11:52:40;24.10;99.90
28336;DHT22;15592;53.656;7.276;2023-06-24T11:58:03;24.30;99.90
28336;DHT22;15592;53.656;7.276;2023-06-24T12:00:37;24.30;99.90
28336;DHT22;15592;53.656;7.276;2023-06-24T12:03:08;24.20;99.90
28336;DHT22;15592;53.656;7.276;2023-06-24T12:05:36;24.10;99.90
28336;DHT22;15592;53.656;7.276;2023-06-24T12:08:06;24.00;99.90
28336;DHT22;15592;53.656;7.276;2023-06-24T12:10:33;24.00;99.90
28336;DHT22;15592;53.656;7.276;2023-06-24T12:13:00;24.00;99.90
28336;DHT22;15592;53.656;7.276;2023-06-24T12:15:27;24.00;99.90
28336;DHT22;15592;53.656;7.276;2023-06-24T12:17:52;23.90;99.90
28336;DHT22;15592;53.656;7.276;2023-06-24T12:20:18;23.90;99.90
28336;DHT22;15592;53.656;7.276;2023-06-24T12:22:46;23.90;99.90
28336;DHT22;15592;53.656;7.276;2023-06-24T12:25:11;23.90;99.90
28336;DHT22;15592;53.656;7.276;2023-06-24T12:27:38;23.90;99.90
28336;DHT22;15592;53.656;7.276;2023-06-24T12:30:04;24.00;99.90
28336;DHT22;15592;53.656;7.276;2023-06-24T12:32:30;24.00;99.90
28336;DHT22;15592;53.656;7.276;2023-06-24T12:34:55;24.10;99.90
28336;DHT22;15592;53.656;7.276;2023-06-24T12:37:22;24.20;99.90
28336;DHT22;15592;53.656;7.276;2023-06-24T12:39:48;24.30;99.90
28336;DHT22;15592;53.656;7.276;2023-06-24T12:42:16;24.30;99.90
28336;DHT22;15592;53.656;7.276;2023-06-24T12:44:42;24.30;99.90
28336;DHT22;15592;53.656;7.276;2023-06-24T12:47:07;24.40;99.90
28336;DHT22;15592;53.656;7.276;2023-06-24T12:49:33;24.30;99.90
28336;DHT22;15592;53.656;7.276;2023-06-24T12:51:58;24.30;99.90
28336;DHT22;15592;53.656;7.276;2023-06-24T12:54:24;24.30;99.90
28336;DHT22;15592;53.656;7.276;2023-06-24T12:56:50;24.30;99.90
28336;DHT22;15592;53.656;7.276;2023-06-24T12:59:15;24.30;99.90
28336;DHT22;15592;53.656;7.276;2023-06-24T13:01:41;24.30;99.90
28336;DHT22;15592;53.656;7.276;2023-06-24T13:04:12;24.30;99.90
28336;DHT22;15592;53.656;7.276;2023-06-24T13:06:38;24.20;99.90
28336;DHT22;15592;53.656;7.276;2023-06-24T13:09:03;24.20;99.90
28336;DHT22;15592;53.656;7.276;2023-06-24T13:11:29;24.10;99.90
28336;DHT22;15592;53.656;7.276;2023-06-24T13:13:55;24.10;99.90
28336;DHT22;15592;53.656;7.276;2023-06-24T13:16:21;24.00;99.90
28336;DHT22;15592;53.656;7.276;2023-06-24T13:18:47;24.00;99.90
28336;DHT22;15592;53.656;7.276;2023-06-24T13:21:13;23.90;99.90
28336;DHT22;15592;53.656;7.276;2023-06-24T13:23:39;23.90;99.90
28336;DHT22;15592;53.656;7.276;2023-06-24T13:26:06;23.90;99.90
28336;DHT22;15592;53.656;7.276;2023-06-24T13:28:31;23.90;99.90
28336;DHT22;15592;53.656;7.276;2023-06-24T13:30:58;23.90;99.90
28336;DHT22;15592;53.656;7.276;2023-06-24T13:33:23;24.00;99.90
28336;DHT22;15592;53.656;7.276;2023-06-24T13:35:50;23.90;99.90
28336;DHT22;15592;53.656;7.276;2023-06-24T13:38:16;23.90;99.90
28336;DHT22;15592;53.656;7.276;2023-06-24T13:40:41;23.80;99.90
28336;DHT22;15592;53.656;7.276;2023-06-24T13:43:07;23.70;99.90
28336;DHT22;15592;53.656;7.276;2023-06-24T13:45:32;23.70;99.90
28336;DHT22;15592;53.656;7.276;2023-06-24T13:47:58;23.60;99.90
28336;DHT22;15592;53.656;7.276;2023-06-24T13:50:24;23.60;99.90
28336;DHT22;15592;53.656;7.276;2023-06-24T13:52:49;23.60;99.90
28336;DHT22;15592;53.656;7.276;2023-06-24T13:55:15;23.60;99.90
28336;DHT22;15592;53.656;7.276;2023-06-24T13:57:40;23.60;99.90
28336;DHT22;15592;53.656;7.276;2023-06-24T14:00:07;23.60;99.90
28336;DHT22;15592;53.656;7.276;2023-06-24T14:02:34;23.70;99.90
28336;DHT22;15592;53.656;7.276;2023-06-24T14:05:00;23.70;99.90
28336;DHT22;15592;53.656;7.276;2023-06-24T14:07:25;23.70;99.90
28336;DHT22;15592;53.656;7.276;2023-06-24T14:09:51;23.70;99.90
28336;DHT22;15592;53.656;7.276;2023-06-24T14:12:17;23.80;99.90
28336;DHT22;15592;53.656;7.276;2023-06-24T14:14:42;23.70;99.90
28336;DHT22;15592;53.656;7.276;2023-06-24T14:17:08;23.80;99.90
28336;DHT22;15592;53.656;7.276;2023-06-24T14:19:39;23.80;99.90
28336;DHT22;15592;53.656;7.276;2023-06-24T14:22:05;23.70;99.90
28336;DHT22;15592;53.656;7.276;2023-06-24T14:24:31;23.60;99.90
28336;DHT22;15592;53.656;7.276;2023-06-24T14:26:57;23.50;99.90
28336;DHT22;15592;53.656;7.276;2023-06-24T14:29:22;23.50;99.90
28336;DHT22;15592;53.656;7.276;2023-06-24T14:31:48;23.50;99.90
28336;DHT22;15592;53.656;7.276;2023-06-24T14:34:14;23.50;99.90
28336;DHT22;15592;53.656;7.276;2023-06-24T14:36:40;23.40;99.90
28336;DHT22;15592;53.656;7.276;2023-06-24T14:39:05;23.40;99.90
28336;DHT22;15592;53.656;7.276;2023-06-24T14:41:32;23.20;99.90
28336;DHT22;15592;53.656;7.276;2023-06-24T14:43:58;23.20;99.90
28336;DHT22;15592;53.656;7.276;2023-06-24T14:46:23;23.20;99.90
28336;DHT22;15592;53.656;7.276;2023-06-24T14:48:49;23.20;99.90
28336;DHT22;15592;53.656;7.276;2023-06-24T14:51:14;23.20;99.90
28336;DHT22;15592;53.656;7.276;2023-06-24T14:53:40;23.30;99.90
28336;DHT22;15592;53.656;7.276;2023-06-24T14:56:07;23.20;99.90
28336;DHT22;15592;53.656;7.276;2023-06-24T14:58:32;23.20;99.90
28336;DHT22;15592;53.656;7.276;2023-06-24T15:00:58;23.20;99.90
28336;DHT22;15592;53.656;7.276;2023-06-24T15:03:23;23.20;99.90
28336;DHT22;15592;53.656;7.276;2023-06-24T15:05:49;23.20;99.90
28336;DHT22;15592;53.656;7.276;2023-06-24T15:08:15;23.20;99.90
28336;DHT22;15592;53.656;7.276;2023-06-24T15:10:40;23.30;99.90
28336;DHT22;15592;53.656;7.276;2023-06-24T15:13:06;23.30;99.90
28336;DHT22;15592;53.656;7.276;2023-06-24T15:15:32;23.30;99.90
28336;DHT22;15592;53.656;7.276;2023-06-24T15:17:57;23.20;99.90
28336;DHT22;15592;53.656;7.276;2023-06-24T15:20:23;23.20;99.90
28336;DHT22;15592;53.656;7.276;2023-06-24T15:22:48;23.20;99.90
28336;DHT22;15592;53.656;7.276;2023-06-24T15:25:14;23.10;99.90
28336;DHT22;15592;53.656;7.276;2023-06-24T15:27:40;23.10;99.90
28336;DHT22;15592;53.656;7.276;2023-06-24T15:30:06;23.00;99.90
28336;DHT22;15592;53.656;7.276;2023-06-24T15:32:32;23.00;99.90
28336;DHT22;15592;53.656;7.276;2023-06-24T15:34:57;23.00;99.90
28336;DHT22;15592;53.656;7.276;2023-06-24T15:37:23;23.00;99.90
28336;DHT22;15592;53.656;7.276;2023-06-24T15:39:48;23.00;99.90
28336;DHT22;15592;53.656;7.276;2023-06-24T15:42:14;23.00;99.90
28336;DHT22;15592;53.656;7.276;2023-06-24T15:44:40;22.90;99.90
28336;DHT22;15592;53.656;7.276;2023-06-24T15:47:06;23.00;99.90